createdAt,value
2023-04-07T00:02:23.512Z,27.25
2023-04-07T00:04:48.149Z,20.88
2023-04-07T00:07:12.807Z,23.30
2023-04-07T00:09:37.394Z,25.48
2023-04-07T00:12:03.766Z,24.95
2023-04-07T00:14:28.181Z,25.80
2023-04-07T00:16:52.777Z,22.13
2023-04-07T00:19:17.240Z,20.08
2023-04-07T00:21:41.741Z,24.73
2023-04-07T00:24:06.558Z,24.40
2023-04-07T00:26:32.846Z,25.73
2023-04-07T00:28:59.112Z,26.95
2023-04-07T00:31:23.560Z,26.02
2023-04-07T00:33:49.637Z,34.15
2023-04-07T00:36:14.173Z,25.73
2023-04-07T00:38:38.830Z,23.15
2023-04-07T00:41:03.572Z,26.08
2023-04-07T00:43:28.216Z,25.85
2023-04-07T00:45:54.869Z,24.00
2023-04-07T00:48:19.438Z,24.73
2023-04-07T00:50:44.114Z,24.80
2023-04-07T00:53:08.978Z,29.05
2023-04-07T00:55:33.614Z,24.70
2023-04-07T00:57:58.337Z,26.20
2023-04-07T01:00:23.035Z,26.05
2023-04-07T01:02:57.810Z,25.42
2023-04-07T01:05:29.937Z,27.48
2023-04-07T01:08:02.024Z,25.05
2023-04-07T01:10:34.471Z,27.85
2023-04-07T01:13:18.670Z,25.85
2023-04-07T01:15:49.188Z,24.10
2023-04-07T01:18:23.428Z,27.52
2023-04-07T01:20:51.675Z,25.65
2023-04-07T01:23:24.619Z,27.17
2023-04-07T01:26:05.477Z,30.50
2023-04-07T01:28:50.668Z,27.77
2023-04-07T01:31:18.095Z,30.17
2023-04-07T01:33:46.829Z,26.05
2023-04-07T01:36:12.791Z,26.25
2023-04-07T01:38:38.763Z,27.90
2023-04-07T01:41:04.662Z,25.60
2023-04-07T01:43:30.048Z,24.63
2023-04-07T01:45:57.188Z,28.98
2023-04-07T01:48:23.644Z,27.02
2023-04-07T01:50:48.430Z,26.58
2023-04-07T01:53:13.564Z,24.75
2023-04-07T01:55:38.935Z,30.40
2023-04-07T01:58:07.229Z,29.83
2023-04-07T02:00:34.439Z,34.83
2023-04-07T02:03:10.693Z,28.75
2023-04-07T02:05:40.073Z,28.45
2023-04-07T02:08:09.407Z,25.85
2023-04-07T02:10:38.468Z,25.23
2023-04-07T02:13:05.177Z,27.48
2023-04-07T02:15:31.862Z,28.85
2023-04-07T02:17:59.737Z,31.17
2023-04-07T02:20:25.550Z,25.83
2023-04-07T02:22:51.798Z,26.55
2023-04-07T02:25:24.246Z,24.70
2023-04-07T02:27:51.037Z,32.28
2023-04-07T02:30:16.777Z,27.20
2023-04-07T02:32:42.621Z,27.83
2023-04-07T02:35:08.151Z,28.83
2023-04-07T02:37:32.798Z,26.50
2023-04-07T02:40:00.247Z,26.42
2023-04-07T02:42:25.079Z,29.17
2023-04-07T02:44:49.705Z,31.10
2023-04-07T02:47:14.222Z,28.88
2023-04-07T02:49:38.699Z,29.42
2023-04-07T02:52:04.003Z,26.30
2023-04-07T02:54:28.483Z,33.63
2023-04-07T02:56:54.697Z,30.98
2023-04-07T02:59:19.185Z,30.25
2023-04-07T03:01:43.788Z,29.42
2023-04-07T03:04:08.492Z,31.35
2023-04-07T03:06:33.541Z,29.75
2023-04-07T03:09:04.019Z,31.10
2023-04-07T03:11:28.614Z,32.95
2023-04-07T03:13:56.805Z,30.38
2023-04-07T03:16:22.069Z,26.90
2023-04-07T03:18:57.316Z,31.80
2023-04-07T03:21:21.903Z,29.35
2023-04-07T03:23:46.692Z,31.00
2023-04-07T03:26:11.245Z,33.42
2023-04-07T03:28:36.476Z,26.50
2023-04-07T03:31:02.709Z,31.00
2023-04-07T03:33:28.069Z,33.20
2023-04-07T03:35:53.094Z,34.10
2023-04-07T03:38:18.791Z,29.48
2023-04-07T03:40:43.449Z,31.90
2023-04-07T03:43:12.480Z,39.83
2023-04-07T03:46:19.809Z,31.50
2023-04-07T03:49:06.803Z,30.55
2023-04-07T03:51:31.370Z,30.52
2023-04-07T03:53:56.774Z,30.45
2023-04-07T03:56:35.109Z,33.42
2023-04-07T03:59:00.408Z,36.65
2023-04-07T04:01:29.691Z,38.85
2023-04-07T04:03:57.373Z,37.85
2023-04-07T04:06:29.057Z,35.80
2023-04-07T04:09:02.378Z,32.17
2023-04-07T04:11:29.598Z,32.83
2023-04-07T04:13:57.961Z,31.55
2023-04-07T04:16:22.957Z,34.10
2023-04-07T04:18:49.352Z,34.38
2023-04-07T04:21:14.853Z,35.50
2023-04-07T04:23:42.826Z,34.80
2023-04-07T04:26:07.471Z,38.97
2023-04-07T04:28:32.482Z,34.60
2023-04-07T04:30:58.859Z,38.63
2023-04-07T04:33:23.901Z,32.92
2023-04-07T04:35:52.687Z,34.25
2023-04-07T04:38:18.581Z,40.88
2023-04-07T04:40:51.621Z,36.40
2023-04-07T04:43:21.662Z,37.65
2023-04-07T04:45:46.271Z,35.55
2023-04-07T04:48:13.330Z,40.85
2023-04-07T04:50:37.963Z,36.40
2023-04-07T04:53:07.482Z,38.40
2023-04-07T04:55:32.212Z,34.72
2023-04-07T04:57:58.772Z,36.47
2023-04-07T05:00:41.642Z,38.67
2023-04-07T05:03:08.527Z,37.25
2023-04-07T05:05:57.042Z,40.42
2023-04-07T05:08:21.497Z,41.90
2023-04-07T05:10:46.717Z,42.42
2023-04-07T05:13:16.916Z,40.88
2023-04-07T05:15:43.507Z,40.80
2023-04-07T05:18:11.216Z,40.63
2023-04-07T05:20:36.542Z,39.90
2023-04-07T05:23:01.180Z,42.55
2023-04-07T05:25:30.033Z,42.13
2023-04-07T05:27:59.207Z,43.45
2023-04-07T05:30:25.202Z,41.53
2023-04-07T05:32:50.633Z,39.35
2023-04-07T05:35:25.202Z,45.83
2023-04-07T05:37:53.929Z,42.63
2023-04-07T05:40:19.549Z,42.95
2023-04-07T05:42:44.849Z,42.60
2023-04-07T05:45:11.883Z,43.55
2023-04-07T05:47:41.453Z,50.45
2023-04-07T05:50:08.960Z,41.53
2023-04-07T05:52:34.018Z,39.95
2023-04-07T05:55:09.018Z,35.97
2023-04-07T05:57:34.715Z,33.92
2023-04-07T06:00:01.410Z,43.28
2023-04-07T06:02:29.190Z,34.72
2023-04-07T06:04:56.663Z,44.40
2023-04-07T06:07:22.628Z,35.85
2023-04-07T06:09:47.284Z,52.42
2023-04-07T06:12:12.847Z,43.20
2023-04-07T06:14:37.409Z,28.83
2023-04-07T06:17:02.591Z,25.35
2023-04-07T06:19:27.667Z,23.92
2023-04-07T06:21:53.857Z,18.05
2023-04-07T06:24:18.854Z,34.65
2023-04-07T06:26:43.854Z,30.58
2023-04-07T06:29:15.374Z,33.30
2023-04-07T06:31:41.742Z,25.95
2023-04-07T06:34:10.110Z,28.27
2023-04-07T06:36:36.538Z,31.55
2023-04-07T06:39:06.810Z,28.40
2023-04-07T06:41:34.112Z,25.83
2023-04-07T06:43:59.158Z,30.38
2023-04-07T06:46:27.289Z,28.42
2023-04-07T06:48:55.618Z,28.10
2023-04-07T06:51:24.545Z,30.17
2023-04-07T06:53:52.714Z,28.08
2023-04-07T06:56:19.239Z,31.58
2023-04-07T06:58:44.652Z,29.75
2023-04-07T07:01:12.564Z,30.52
2023-04-07T07:03:42.975Z,31.77
2023-04-07T07:06:08.458Z,32.35
2023-04-07T07:08:35.239Z,32.45
2023-04-07T07:11:01.180Z,33.42
2023-04-07T07:13:28.446Z,34.90
2023-04-07T07:15:57.180Z,30.33
2023-04-07T07:18:22.554Z,27.08
2023-04-07T07:20:49.614Z,32.75
2023-04-07T07:23:15.602Z,28.73
2023-04-07T07:25:42.674Z,31.83
2023-04-07T07:28:07.553Z,33.55
2023-04-07T07:30:36.730Z,33.22
2023-04-07T07:33:02.081Z,28.23
2023-04-07T07:35:27.380Z,30.55
2023-04-07T07:37:52.481Z,30.92
2023-04-07T07:40:18.683Z,33.47
2023-04-07T07:42:46.492Z,31.38
2023-04-07T07:45:14.758Z,28.95
2023-04-07T07:47:42.123Z,30.83
2023-04-07T07:50:08.417Z,34.75
2023-04-07T07:52:33.596Z,33.95
2023-04-07T07:54:58.985Z,33.95
2023-04-07T07:57:25.801Z,27.08
2023-04-07T07:59:50.910Z,29.40
2023-04-07T08:02:18.423Z,30.33
2023-04-07T08:04:45.243Z,29.20
2023-04-07T08:07:11.596Z,32.80
2023-04-07T08:09:36.626Z,32.05
2023-04-07T08:12:24.790Z,29.40
2023-04-07T08:14:50.866Z,31.15
2023-04-07T08:17:15.791Z,29.95
2023-04-07T08:19:41.157Z,25.77
2023-04-07T08:22:08.105Z,28.85
2023-04-07T08:24:33.536Z,29.75
2023-04-07T08:27:00.136Z,27.33
2023-04-07T08:29:25.216Z,20.75
2023-04-07T08:31:50.252Z,20.85
2023-04-07T08:34:16.747Z,23.45
2023-04-07T08:36:44.100Z,20.08
2023-04-07T08:39:10.255Z,21.27
2023-04-07T08:41:38.867Z,22.75
2023-04-07T08:44:04.500Z,17.02
2023-04-07T08:46:30.640Z,22.50
2023-04-07T08:48:58.208Z,24.00
2023-04-07T08:51:28.785Z,21.42
2023-04-07T08:53:56.711Z,20.67
2023-04-07T08:56:25.270Z,17.50
2023-04-07T08:58:53.616Z,19.10
2023-04-07T09:01:19.526Z,23.25
2023-04-07T09:03:46.189Z,17.17
2023-04-07T09:06:12.766Z,20.63
2023-04-07T09:08:38.905Z,16.38
2023-04-07T09:11:04.450Z,14.82
2023-04-07T09:13:34.154Z,17.27
2023-04-07T09:16:02.198Z,23.73
2023-04-07T09:18:30.829Z,13.60
2023-04-07T09:21:03.534Z,15.57
2023-04-07T09:23:33.619Z,14.43
2023-04-07T09:28:27.561Z,22.00
2023-04-07T09:30:57.337Z,17.45
2023-04-07T09:33:34.892Z,16.50
2023-04-07T09:36:03.668Z,14.32
2023-04-07T09:38:35.512Z,18.00
2023-04-07T09:41:09.957Z,15.85
2023-04-07T09:43:47.209Z,16.67
2023-04-07T09:46:15.791Z,14.80
2023-04-07T09:48:43.922Z,20.10
2023-04-07T09:51:18.879Z,19.75
2023-04-07T09:53:50.413Z,15.52
2023-04-07T09:56:17.599Z,22.00
2023-04-07T09:58:44.661Z,15.80
2023-04-07T10:01:10.850Z,14.52
2023-04-07T10:03:39.088Z,14.93
2023-04-07T10:06:04.375Z,15.35
2023-04-07T10:08:31.821Z,19.13
2023-04-07T10:10:58.987Z,17.10
2023-04-07T10:13:34.539Z,14.35
2023-04-07T10:16:00.324Z,16.38
2023-04-07T10:18:29.804Z,16.92
2023-04-07T10:20:57.296Z,18.73
2023-04-07T10:23:27.526Z,15.00
2023-04-07T10:26:03.559Z,14.98
2023-04-07T10:28:29.966Z,12.80
2023-04-07T10:30:55.252Z,16.10
2023-04-07T10:33:20.291Z,13.60
2023-04-07T10:36:16.752Z,13.25
2023-04-07T10:38:41.732Z,16.02
2023-04-07T10:41:35.039Z,15.80
2023-04-07T10:43:59.922Z,19.88
2023-04-07T10:46:24.909Z,14.00
2023-04-07T10:49:11.787Z,17.10
2023-04-07T10:51:37.812Z,20.08
2023-04-07T10:54:17.839Z,14.65
2023-04-07T10:59:27.915Z,20.48
2023-04-07T11:02:21.238Z,15.68
2023-04-07T11:04:48.322Z,19.83
2023-04-07T11:07:16.553Z,18.25
2023-04-07T11:09:42.369Z,16.85
2023-04-07T11:12:07.100Z,16.83
2023-04-07T11:14:41.598Z,14.50
2023-04-07T11:17:09.102Z,15.70
2023-04-07T11:19:52.818Z,15.50
2023-04-07T11:24:48.108Z,17.75
2023-04-07T11:27:15.024Z,17.90
2023-04-07T11:29:39.862Z,18.20
2023-04-07T11:32:04.445Z,16.60
2023-04-07T11:34:31.790Z,14.82
2023-04-07T11:36:59.590Z,15.07
2023-04-07T11:39:28.202Z,17.38
2023-04-07T11:41:52.746Z,15.85
2023-04-07T11:44:17.510Z,15.30
2023-04-07T11:46:54.959Z,19.33
2023-04-07T11:49:19.684Z,16.60
2023-04-07T11:51:45.472Z,17.33
2023-04-07T11:54:10.216Z,15.63
2023-04-07T11:56:46.607Z,14.95
2023-04-07T11:59:22.921Z,16.85
2023-04-07T12:01:48.384Z,13.13
2023-04-07T12:04:16.042Z,13.30
2023-04-07T12:06:42.601Z,14.35
2023-04-07T12:09:07.465Z,14.45
2023-04-07T12:11:32.858Z,18.25
2023-04-07T12:13:58.800Z,17.83
2023-04-07T12:16:23.379Z,16.90
2023-04-07T12:18:47.863Z,17.90
2023-04-07T12:21:12.587Z,18.73
2023-04-07T12:23:37.046Z,17.33
2023-04-07T12:26:02.386Z,21.13
2023-04-07T12:28:27.756Z,15.82
2023-04-07T12:30:53.768Z,14.88
2023-04-07T12:33:18.254Z,19.73
2023-04-07T12:35:42.881Z,18.00
2023-04-07T12:38:08.302Z,17.35
2023-04-07T12:40:32.777Z,19.00
2023-04-07T12:42:58.312Z,16.20
2023-04-07T12:45:23.143Z,18.90
2023-04-07T12:47:49.075Z,19.08
2023-04-07T12:50:13.676Z,17.58
2023-04-07T12:52:38.305Z,20.63
2023-04-07T12:55:02.934Z,18.75
2023-04-07T12:57:27.689Z,24.00
2023-04-07T12:59:53.368Z,27.58
2023-04-07T13:02:19.390Z,20.30
2023-04-07T13:04:47.045Z,22.02
2023-04-07T13:07:11.558Z,19.58
2023-04-07T13:09:36.288Z,25.40
2023-04-07T13:12:00.729Z,23.77
2023-04-07T13:14:25.550Z,22.77
2023-04-07T13:16:49.979Z,27.33
2023-04-07T13:19:14.604Z,21.00
2023-04-07T13:21:46.751Z,21.85
2023-04-07T13:24:12.221Z,25.52
2023-04-07T13:26:36.645Z,24.45
2023-04-07T13:29:01.337Z,26.33
2023-04-07T13:31:25.872Z,21.80
2023-04-07T13:33:50.860Z,25.00
2023-04-07T13:36:15.591Z,22.33
2023-04-07T13:38:42.470Z,26.65
2023-04-07T13:41:07.286Z,30.60
2023-04-07T13:43:31.864Z,25.10
2023-04-07T13:45:56.807Z,22.08
2023-04-07T13:48:21.714Z,24.75
2023-04-07T13:50:46.249Z,26.10
2023-04-07T13:53:10.820Z,25.85
2023-04-07T13:55:36.829Z,21.13
2023-04-07T13:58:01.415Z,20.17
2023-04-07T14:00:26.318Z,21.35
2023-04-07T14:02:50.973Z,19.55
2023-04-07T14:05:15.570Z,22.00
2023-04-07T14:07:40.113Z,20.60
2023-04-07T14:10:04.828Z,25.75
2023-04-07T14:12:30.759Z,20.10
2023-04-07T14:14:55.573Z,17.90
2023-04-07T14:17:20.676Z,19.65
2023-04-07T14:19:45.211Z,19.80
2023-04-07T14:22:09.795Z,28.30
2023-04-07T14:24:34.290Z,22.92
2023-04-07T14:26:59.039Z,20.30
2023-04-07T14:29:24.956Z,19.27
2023-04-07T14:31:49.792Z,19.58
2023-04-07T14:34:14.279Z,24.23
2023-04-07T14:36:38.844Z,25.85
2023-04-07T14:39:03.979Z,21.95
2023-04-07T14:41:28.956Z,22.10
2023-04-07T14:43:56.479Z,22.23
2023-04-07T14:46:22.674Z,22.92
2023-04-07T14:48:47.331Z,23.38
2023-04-07T14:51:15.359Z,22.42
2023-04-07T14:53:39.921Z,22.83
2023-04-07T14:56:06.142Z,20.02
2023-04-07T14:58:30.657Z,20.77
2023-04-07T15:00:55.325Z,22.50
2023-04-07T15:03:21.450Z,19.38
2023-04-07T15:05:46.447Z,22.83
2023-04-07T15:08:11.044Z,20.85
2023-04-07T15:10:35.828Z,22.85
2023-04-07T15:13:00.340Z,24.73
2023-04-07T15:15:26.116Z,23.25
2023-04-07T15:17:50.691Z,25.52
2023-04-07T15:20:16.706Z,22.90
2023-04-07T15:22:41.295Z,23.02
2023-04-07T15:25:06.429Z,21.42
2023-04-07T15:27:30.875Z,23.08
2023-04-07T15:29:55.434Z,19.25
2023-04-07T15:32:19.941Z,16.08
2023-04-07T15:34:44.569Z,20.58
2023-04-07T15:37:10.742Z,19.52
2023-04-07T15:39:35.390Z,19.27
2023-04-07T15:41:59.855Z,21.45
2023-04-07T15:44:24.515Z,25.38
2023-04-07T15:46:49.630Z,24.75
2023-04-07T15:49:14.367Z,25.15
2023-04-07T15:51:38.985Z,29.17
2023-04-07T15:54:04.935Z,29.17
2023-04-07T15:56:29.400Z,29.88
2023-04-07T15:58:53.922Z,39.95
2023-04-07T16:01:18.424Z,28.95
2023-04-07T16:03:43.054Z,30.85
2023-04-07T16:06:07.694Z,25.23
2023-04-07T16:08:32.327Z,26.02
2023-04-07T16:10:58.188Z,28.63
2023-04-07T16:13:22.888Z,26.73
2023-04-07T16:15:47.410Z,25.85
2023-04-07T16:18:12.805Z,29.80
2023-04-07T16:20:37.376Z,30.73
2023-04-07T16:23:01.987Z,29.27
2023-04-07T16:25:26.620Z,28.10
2023-04-07T16:27:53.781Z,31.27
2023-04-07T16:30:18.622Z,29.42
2023-04-07T16:32:44.698Z,25.45
2023-04-07T16:35:10.746Z,26.80
2023-04-07T16:37:35.415Z,32.70
2023-04-07T16:40:00.688Z,28.27
2023-04-07T16:42:28.606Z,31.00
2023-04-07T16:44:54.548Z,34.25
2023-04-07T16:47:19.332Z,31.42
2023-04-07T16:49:46.700Z,32.72
2023-04-07T16:52:11.279Z,33.00
2023-04-07T16:54:36.262Z,35.80
2023-04-07T16:57:00.835Z,31.83
2023-04-07T16:59:25.604Z,30.55
2023-04-07T17:01:51.615Z,38.30
2023-04-07T17:04:16.196Z,36.35
2023-04-07T17:06:43.584Z,35.15
2023-04-07T17:09:08.098Z,35.55
2023-04-07T17:11:32.695Z,36.97
2023-04-07T17:13:57.906Z,35.47
2023-04-07T17:16:22.606Z,38.10
2023-04-07T17:18:48.806Z,36.47
2023-04-07T17:21:13.706Z,35.88
2023-04-07T17:23:38.490Z,35.20
2023-04-07T17:26:03.201Z,31.95
2023-04-07T17:28:30.027Z,35.28
2023-04-07T17:30:56.056Z,32.72
2023-04-07T17:33:20.873Z,34.42
2023-04-07T17:35:49.977Z,38.97
2023-04-07T17:38:14.512Z,34.93
2023-04-07T17:40:39.130Z,36.00
2023-04-07T17:43:03.722Z,37.63
2023-04-07T17:45:28.433Z,35.05
2023-04-07T17:47:53.370Z,35.50
2023-04-07T17:50:18.358Z,35.30
2023-04-07T17:52:45.254Z,36.40
2023-04-07T17:55:10.886Z,38.08
2023-04-07T17:57:37.360Z,39.65
2023-04-07T18:00:01.842Z,34.63
2023-04-07T18:02:26.879Z,41.10
2023-04-07T18:04:54.761Z,36.28
2023-04-07T18:07:19.291Z,37.47
2023-04-07T18:09:45.412Z,38.90
2023-04-07T18:12:10.108Z,40.13
2023-04-07T18:14:34.700Z,42.60
2023-04-07T18:16:59.320Z,46.30
2023-04-07T18:19:24.281Z,42.13
2023-04-07T18:21:50.364Z,39.45
2023-04-07T18:24:17.460Z,41.25
2023-04-07T18:26:45.021Z,38.22
2023-04-07T18:29:13.585Z,35.90
2023-04-07T18:31:43.317Z,39.20
2023-04-07T18:34:08.468Z,41.58
2023-04-07T18:36:33.284Z,39.85
2023-04-07T18:39:00.762Z,33.80
2023-04-07T18:41:25.266Z,37.72
2023-04-07T18:43:53.711Z,34.35
2023-04-07T18:46:18.394Z,34.45
2023-04-07T18:48:44.551Z,34.10
2023-04-07T18:51:09.344Z,34.78
2023-04-07T18:53:39.393Z,35.10
2023-04-07T18:56:04.380Z,35.75
2023-04-07T18:58:28.972Z,35.25
2023-04-07T19:00:55.060Z,44.38
2023-04-07T19:03:20.009Z,37.28
2023-04-07T19:05:47.655Z,34.85
2023-04-07T19:08:12.461Z,36.10
2023-04-07T19:10:40.847Z,36.22
2023-04-07T19:13:07.380Z,33.38
2023-04-07T19:15:34.501Z,36.95
2023-04-07T19:18:00.609Z,33.58
2023-04-07T19:20:25.663Z,39.38
2023-04-07T19:22:52.504Z,34.83
2023-04-07T19:25:20.040Z,33.95
2023-04-07T19:27:44.877Z,34.42
2023-04-07T19:30:22.377Z,35.78
2023-04-07T19:32:50.452Z,39.30
2023-04-07T19:35:17.186Z,40.70
2023-04-07T19:37:42.239Z,42.33
2023-04-07T19:40:07.789Z,36.92
2023-04-07T19:42:32.525Z,37.15
2023-04-07T19:44:58.458Z,36.58
2023-04-07T19:47:23.449Z,39.65
2023-04-07T19:49:48.507Z,40.92
2023-04-07T19:52:14.534Z,37.47
2023-04-07T19:54:39.059Z,36.90
2023-04-07T19:57:03.725Z,36.47
2023-04-07T19:59:28.224Z,42.95
2023-04-07T20:01:53.505Z,38.65
2023-04-07T20:04:18.177Z,38.10
2023-04-07T20:06:42.820Z,38.55
2023-04-07T20:09:08.921Z,37.10
2023-04-07T20:11:33.431Z,38.30
2023-04-07T20:13:57.942Z,34.97
2023-04-07T20:16:22.554Z,34.33
2023-04-07T20:18:48.166Z,36.83
2023-04-07T20:21:13.576Z,33.97
2023-04-07T20:23:44.360Z,35.78
2023-04-07T20:26:13.104Z,34.67
2023-04-07T20:28:39.695Z,36.67
2023-04-07T20:31:05.087Z,63.42
2023-04-07T20:33:29.935Z,54.05
2023-04-07T20:35:54.865Z,40.50
2023-04-07T20:38:20.345Z,34.63
2023-04-07T20:40:46.339Z,36.92
2023-04-07T20:43:12.366Z,38.22
2023-04-07T20:45:37.280Z,37.42
2023-04-07T20:48:01.842Z,36.45
2023-04-07T20:50:27.131Z,36.83
2023-04-07T20:52:52.704Z,37.13
2023-04-07T20:55:17.383Z,41.30
2023-04-07T20:57:42.555Z,41.38
2023-04-07T21:00:10.365Z,39.90
2023-04-07T21:02:36.026Z,38.97
2023-04-07T21:05:01.634Z,42.58
2023-04-07T21:07:27.964Z,43.47
2023-04-07T21:09:53.020Z,37.63
2023-04-07T21:12:17.856Z,44.97
2023-04-07T21:14:43.058Z,43.30
2023-04-07T21:17:09.439Z,44.00
2023-04-07T21:19:34.803Z,51.03
2023-04-07T21:22:00.604Z,40.67
2023-04-07T21:24:25.226Z,40.00
2023-04-07T21:26:49.904Z,42.47
2023-04-07T21:29:14.614Z,39.83
2023-04-07T21:31:39.789Z,39.33
2023-04-07T21:34:06.170Z,37.78
2023-04-07T21:36:31.646Z,41.20
2023-04-07T21:38:56.276Z,40.80
2023-04-07T21:41:21.231Z,40.22
2023-04-07T21:43:46.229Z,38.80
2023-04-07T21:46:10.947Z,42.33
2023-04-07T21:48:36.047Z,40.45
2023-04-07T21:51:03.201Z,41.50
2023-04-07T21:53:27.870Z,39.22
2023-04-07T21:55:52.642Z,41.50
2023-04-07T21:58:17.252Z,44.72
2023-04-07T22:00:42.114Z,42.42
2023-04-07T22:03:07.266Z,43.55
2023-04-07T22:05:32.555Z,44.47
2023-04-07T22:07:58.691Z,41.55
2023-04-07T22:10:23.418Z,45.35
2023-04-07T22:12:48.062Z,46.53
2023-04-07T22:15:14.090Z,42.90
2023-04-07T22:17:40.136Z,44.90
2023-04-07T22:20:05.747Z,45.50
2023-04-07T22:22:30.654Z,44.90
2023-04-07T22:24:56.912Z,44.45
2023-04-07T22:27:21.596Z,48.20
2023-04-07T22:29:46.765Z,45.65
2023-04-07T22:32:13.530Z,48.28
2023-04-07T22:34:38.457Z,44.80
2023-04-07T22:37:03.105Z,44.15
2023-04-07T22:39:30.851Z,47.40
2023-04-07T22:41:57.037Z,46.90
2023-04-07T22:44:22.078Z,46.10
2023-04-07T22:46:46.701Z,49.30
2023-04-07T22:49:11.669Z,47.30
2023-04-07T22:51:37.734Z,48.55
2023-04-07T22:54:02.384Z,49.20
2023-04-07T22:56:27.388Z,44.40
2023-04-07T22:58:53.648Z,46.42
2023-04-07T23:01:18.712Z,48.88
2023-04-07T23:03:43.869Z,50.58
2023-04-07T23:06:08.810Z,49.50
2023-04-07T23:08:33.533Z,44.70
2023-04-07T23:10:58.196Z,44.03
2023-04-07T23:13:23.124Z,48.63
2023-04-07T23:15:49.173Z,45.97
2023-04-07T23:18:13.803Z,48.00
2023-04-07T23:20:38.433Z,48.45
2023-04-07T23:23:03.567Z,50.13
2023-04-07T23:25:39.767Z,50.65
2023-04-07T23:28:05.800Z,49.85
2023-04-07T23:30:30.634Z,50.90
2023-04-07T23:32:56.829Z,52.53
2023-04-07T23:35:21.535Z,49.15
2023-04-07T23:37:46.119Z,53.53
2023-04-07T23:40:11.750Z,53.42
2023-04-07T23:42:36.958Z,51.63
2023-04-07T23:45:01.458Z,49.90
2023-04-07T23:47:28.007Z,47.55
2023-04-07T23:49:54.509Z,46.85
2023-04-07T23:52:21.622Z,48.25
2023-04-07T23:54:46.649Z,47.67
2023-04-07T23:57:11.815Z,50.00
2023-04-07T23:59:36.519Z,49.75
